Time;durP1;ratioP1;P1;durP2;ratioP2;P2;SDS_P1;SDS_P2;PMS_P1;PMS_P2;Temp;Humidity;BMP_temperature;BMP_pressure;BME280_temperature;BME280_humidity;BME280_pressure;Samples;Min_cycle;Max_cycle;Signal;HPM_P1;HPM_P2
2022/06/12 00:00:20;;;;;;;14.15;3.72;;;10.90;1.10;;;;;;5073767;28;20127;-23
2022/06/12 00:02:46;;;;;;;11.35;3.20;;;10.90;1.00;;;;;;5070878;28;20056;-24
2022/06/12 00:05:15;;;;;;;10.52;3.28;;;10.90;1.00;;;;;;5052004;28;20049;-24
2022/06/12 00:07:41;;;;;;;14.43;4.93;;;10.90;1.00;;;;;;5053379;28;20099;-24
2022/06/12 00:10:09;;;;;;;16.00;3.58;;;10.80;1.00;;;;;;5055928;28;20033;-24
2022/06/12 00:12:36;;;;;;;11.10;4.30;;;10.90;1.00;;;;;;5053179;28;20091;-24
2022/06/12 00:15:02;;;;;;;13.07;3.70;;;10.90;1.00;;;;;;5057113;28;20094;-23
2022/06/12 00:17:27;;;;;;;12.73;3.60;;;10.90;1.00;;;;;;5059182;28;20445;-23
2022/06/12 00:19:53;;;;;;;15.32;3.88;;;10.80;1.00;;;;;;5063774;28;20067;-23
2022/06/12 00:22:19;;;;;;;13.68;3.78;;;10.90;1.00;;;;;;5073699;28;20052;-23
2022/06/12 00:24:45;;;;;;;17.80;4.28;;;10.80;1.00;;;;;;5054528;28;20102;-24
2022/06/12 00:27:11;;;;;;;12.90;3.70;;;10.70;1.00;;;;;;5074114;28;20102;-23
2022/06/12 00:29:39;;;;;;;13.05;3.40;;;10.70;1.00;;;;;;5068079;28;20052;-23
2022/06/12 00:32:13;;;;;;;13.23;3.35;;;10.60;1.40;;;;;;5053442;28;20049;-23
2022/06/12 00:34:46;;;;;;;15.65;3.78;;;10.60;15.80;;;;;;5052020;28;20072;-23
2022/06/12 00:37:13;;;;;;;13.93;3.60;;;10.60;28.50;;;;;;5054041;28;20103;-23
2022/06/12 00:39:41;;;;;;;14.63;3.85;;;10.50;38.70;;;;;;5051703;28;20041;-24
2022/06/12 00:42:24;;;;;;;14.60;3.95;;;10.40;74.30;;;;;;5038524;28;20040;-23
2022/06/12 00:44:51;;;;;;;21.80;5.20;;;10.50;99.90;;;;;;5056887;28;20406;-24
2022/06/12 00:47:17;;;;;;;11.40;4.18;;;10.40;99.90;;;;;;5063920;28;20405;-23
2022/06/12 00:49:49;;;;;;;13.40;4.07;;;10.30;99.90;;;;;;5073920;28;20486;-23
2022/06/12 00:52:22;;;;;;;13.20;4.70;;;10.40;99.90;;;;;;5056374;28;20052;-24
2022/06/12 00:54:51;;;;;;;13.07;4.65;;;10.30;99.90;;;;;;5056099;28;20183;-23
2022/06/12 00:57:18;;;;;;;15.65;5.38;;;10.30;99.90;;;;;;5056544;28;20048;-23
2022/06/12 00:59:50;;;;;;;12.88;4.88;;;10.30;99.90;;;;;;5055948;28;20123;-23
2022/06/12 01:02:21;;;;;;;15.48;5.40;;;10.30;99.90;;;;;;5058984;28;20088;-24
2022/06/12 01:07:58;;;;;;;11.88;4.00;;;10.30;99.90;;;;;;5071627;28;20049;-24
2022/06/12 01:10:28;;;;;;;19.00;4.68;;;10.40;99.90;;;;;;5056147;28;20053;-23
2022/06/12 01:13:05;;;;;;;19.73;6.15;;;10.40;99.90;;;;;;5059641;28;20111;-24
2022/06/12 01:15:36;;;;;;;11.23;4.30;;;10.40;99.90;;;;;;5056376;28;20045;-23
2022/06/12 01:18:06;;;;;;;15.98;5.15;;;10.40;99.90;;;;;;5055855;28;20045;-23
2022/06/12 01:20:50;;;;;;;15.43;4.65;;;10.30;99.90;;;;;;5055582;28;20455;-24
2022/06/12 01:23:32;;;;;;;20.23;5.30;;;10.40;99.90;;;;;;5056987;28;20053;-23
2022/06/12 01:26:16;;;;;;;16.08;4.60;;;10.40;99.90;;;;;;5067154;28;20397;-24
2022/06/12 01:28:48;;;;;;;17.95;4.05;;;10.40;99.90;;;;;;5058319;28;20095;-23
2022/06/12 01:31:18;;;;;;;15.35;5.00;;;10.40;99.90;;;;;;5056590;28;20052;-24
2022/06/12 01:33:58;;;;;;;17.65;5.05;;;10.40;99.90;;;;;;5056233;28;20053;-24
2022/06/12 01:36:44;;;;;;;14.77;4.25;;;10.40;99.90;;;;;;5056326;28;20044;-23
2022/06/12 01:39:22;;;;;;;11.35;4.65;;;10.40;99.90;;;;;;5055921;28;20077;-23
2022/06/12 01:42:08;;;;;;;17.27;4.53;;;10.40;99.90;;;;;;5055460;28;20406;-24
2022/06/12 01:45:12;;;;;;;15.75;3.80;;;10.40;1.00;;;;;;5056096;28;20076;-24
2022/06/12 01:47:51;;;;;;;13.93;4.47;;;10.40;1.00;;;;;;5055135;28;20048;-24
2022/06/12 01:50:37;;;;;;;17.10;4.45;;;10.30;1.00;;;;;;5055887;28;20470;-24
2022/06/12 01:53:12;;;;;;;14.05;3.95;;;10.20;1.00;;;;;;5055353;28;20067;-24
2022/06/12 01:55:50;;;;;;;12.38;4.15;;;10.20;1.00;;;;;;5052856;28;20512;-25
2022/06/12 01:58:31;;;;;;;19.42;4.70;;;10.10;1.00;;;;;;5055083;28;20128;-24
2022/06/12 02:01:15;;;;;;;16.08;4.28;;;10.10;1.00;;;;;;5054972;28;20443;-24
2022/06/12 02:03:56;;;;;;;19.45;4.45;;;10.00;1.00;;;;;;5062024;28;20491;-24
2022/06/12 02:06:32;;;;;;;18.38;4.05;;;10.10;1.00;;;;;;5057032;28;20048;-24
2022/06/12 02:09:04;;;;;;;16.88;5.03;;;10.20;1.00;;;;;;5065992;28;20040;-24
2022/06/12 02:14:41;;;;;;;18.42;4.30;;;10.10;1.00;;;;;;5060684;28;20107;-24
2022/06/12 02:17:10;;;;;;;19.67;4.65;;;10.20;1.00;;;;;;5055038;28;20049;-24
2022/06/12 02:19:43;;;;;;;13.50;4.55;;;10.20;1.00;;;;;;5054820;28;20127;-24
2022/06/12 02:22:17;;;;;;;12.10;4.28;;;10.20;1.00;;;;;;5054728;28;20138;-24
2022/06/12 02:24:51;;;;;;;14.82;4.20;;;10.20;1.00;;;;;;5055098;28;20049;-24
2022/06/12 02:27:30;;;;;;;17.60;5.22;;;10.30;1.00;;;;;;5054924;28;20487;-24
2022/06/12 02:30:17;;;;;;;12.85;4.35;;;10.30;1.00;;;;;;5054306;28;20047;-24
2022/06/12 02:32:59;;;;;;;12.52;3.95;;;10.30;1.00;;;;;;5056123;28;20060;-24
2022/06/12 02:35:39;;;;;;;21.63;4.47;;;10.40;1.00;;;;;;5054681;28;20505;-23
2022/06/12 02:38:30;;;;;;;14.27;4.90;;;10.40;1.00;;;;;;5054503;28;20403;-24
2022/06/12 02:41:09;;;;;;;17.23;4.50;;;10.40;1.00;;;;;;5054711;28;20049;-23
2022/06/12 02:43:39;;;;;;;19.80;5.78;;;10.40;1.00;;;;;;5054034;28;20037;-24
2022/06/12 02:46:23;;;;;;;19.02;5.28;;;10.40;10.10;;;;;;5053605;28;20063;-24
2022/06/12 02:48:49;;;;;;;20.05;4.30;;;10.40;55.90;;;;;;5054568;28;20049;-24
2022/06/12 02:51:31;;;;;;;11.80;5.28;;;10.30;34.60;;;;;;5053439;28;20037;-24
2022/06/12 02:54:02;;;;;;;15.27;4.55;;;10.30;65.00;;;;;;5054724;28;20052;-24
2022/06/12 02:56:43;;;;;;;15.57;4.70;;;10.30;72.30;;;;;;5054377;28;20063;-24
2022/06/12 02:59:28;;;;;;;13.07;4.15;;;10.30;96.40;;;;;;5053377;28;20097;-24
2022/06/12 03:02:06;;;;;;;22.17;6.07;;;10.30;78.40;;;;;;5054271;28;20048;-24
2022/06/12 03:04:57;;;;;;;18.30;4.82;;;10.30;70.30;;;;;;5054677;28;20454;-24
2022/06/12 03:07:23;;;;;;;26.83;6.45;;;10.20;76.40;;;;;;5053461;28;20431;-24
2022/06/12 03:09:49;;;;;;;17.30;4.82;;;10.20;78.70;;;;;;5052282;28;20037;-24
2022/06/12 03:12:15;;;;;;;17.23;4.57;;;10.10;78.60;;;;;;5055410;28;20106;-24
2022/06/12 03:14:41;;;;;;;17.83;5.18;;;10.10;86.70;;;;;;5058026;28;20547;-24
2022/06/12 03:17:07;;;;;;;12.05;4.50;;;10.10;95.60;;;;;;5053974;28;20447;-24
2022/06/12 03:19:42;;;;;;;22.98;5.55;;;10.00;99.90;;;;;;5053882;28;20045;-24
2022/06/12 03:22:26;;;;;;;16.98;5.95;;;10.00;99.90;;;;;;5053372;28;20128;-24
2022/06/12 03:25:15;;;;;;;16.00;5.03;;;10.00;99.90;;;;;;5054234;28;20095;-24
2022/06/12 03:27:49;;;;;;;14.23;5.03;;;9.90;99.90;;;;;;5053941;28;20055;-24
2022/06/12 03:30:37;;;;;;;15.13;5.32;;;9.90;99.90;;;;;;5054302;28;20053;-24
2022/06/12 03:33:07;;;;;;;23.33;5.35;;;9.90;99.90;;;;;;5053344;28;20052;-24
2022/06/12 03:36:03;;;;;;;15.73;6.47;;;9.90;99.90;;;;;;5053997;28;20045;-24
2022/06/12 03:38:38;;;;;;;16.50;5.03;;;9.90;99.90;;;;;;5053621;28;20546;-24
2022/06/12 03:41:19;;;;;;;15.15;4.80;;;9.90;99.90;;;;;;5054393;28;20044;-24
2022/06/12 03:43:59;;;;;;;20.50;5.80;;;9.90;99.90;;;;;;5054092;28;20052;-24
2022/06/12 03:46:52;;;;;;;14.80;5.30;;;10.00;99.90;;;;;;5054226;28;20051;-24
2022/06/12 03:49:46;;;;;;;18.25;5.75;;;10.10;99.90;;;;;;5053721;28;20041;-24
2022/06/12 03:52:26;;;;;;;20.42;5.40;;;10.10;99.90;;;;;;5067446;28;20398;-24
2022/06/12 03:54:55;;;;;;;16.33;5.78;;;10.20;99.90;;;;;;5053608;28;20053;-24
2022/06/12 04:00:17;;;;;;;18.50;4.97;;;10.30;99.90;;;;;;5054052;28;20052;-24
2022/06/12 04:02:51;;;;;;;21.23;5.63;;;10.40;99.90;;;;;;5052818;28;20110;-25
2022/06/12 04:05:52;;;;;;;17.67;5.82;;;10.50;99.90;;;;;;5053329;28;20406;-25
2022/06/12 04:08:22;;;;;;;16.33;5.85;;;10.70;1.00;;;;;;5037788;28;20510;-25
2022/06/12 04:10:48;;;;;;;19.65;5.00;;;10.90;1.00;;;;;;5054277;28;20049;-24
2022/06/12 04:13:18;;;;;;;17.38;5.97;;;11.00;1.00;;;;;;5056818;28;20045;-24
2022/06/12 04:16:07;;;;;;;15.70;5.30;;;11.20;1.00;;;;;;5052369;28;20411;-24
2022/06/12 04:18:33;;;;;;;21.77;5.22;;;11.40;1.00;;;;;;5052476;28;20045;-24
2022/06/12 04:21:09;;;;;;;16.73;5.85;;;11.60;1.00;;;;;;5052666;28;20107;-24
2022/06/12 04:23:48;;;;;;;18.90;5.35;;;11.70;1.00;;;;;;5051934;28;20492;-25
2022/06/12 04:26:31;;;;;;;18.58;5.30;;;11.90;1.00;;;;;;5055381;28;20125;-24
2022/06/12 04:29:17;;;;;;;17.23;4.57;;;12.00;1.00;;;;;;5059584;28;20428;-24
2022/06/12 04:31:47;;;;;;;17.60;5.03;;;12.10;1.00;;;;;;5060996;28;20045;-24
2022/06/12 04:34:22;;;;;;;13.15;4.40;;;12.20;1.00;;;;;;5074358;28;20041;-25
2022/06/12 04:36:53;;;;;;;24.10;5.18;;;12.20;1.00;;;;;;5073269;28;20084;-24
2022/06/12 04:39:23;;;;;;;16.00;5.28;;;12.30;1.00;;;;;;5058737;28;20538;-24
2022/06/12 04:41:50;;;;;;;21.45;5.35;;;12.20;1.00;;;;;;5060516;28;20419;-24
2022/06/12 04:44:16;;;;;;;20.25;5.13;;;12.30;1.00;;;;;;5059982;28;20202;-24
2022/06/12 04:46:46;;;;;;;20.67;5.38;;;12.30;1.00;;;;;;5060514;28;20049;-24
2022/06/12 04:49:15;;;;;;;19.55;4.35;;;12.30;1.00;;;;;;5057844;28;20130;-25
2022/06/12 04:51:41;;;;;;;21.65;4.60;;;12.30;1.00;;;;;;5059677;28;20056;-24
2022/06/12 04:54:07;;;;;;;17.48;4.85;;;12.40;1.00;;;;;;5058891;28;20044;-25
2022/06/12 04:56:34;;;;;;;19.65;5.45;;;12.40;1.00;;;;;;5062498;28;20037;-24
2022/06/12 04:59:01;;;;;;;17.48;4.65;;;12.50;1.00;;;;;;5059818;28;20048;-24
2022/06/12 05:01:27;;;;;;;21.38;6.45;;;12.70;1.00;;;;;;5060089;28;20123;-25
2022/06/12 05:03:53;;;;;;;21.33;4.85;;;13.30;54.70;;;;;;5059889;28;20090;-24
2022/06/12 05:06:19;;;;;;;18.02;4.80;;;14.10;61.90;;;;;;5059879;28;20506;-25
2022/06/12 05:08:47;;;;;;;20.55;5.20;;;14.80;1.00;;;;;;5059279;28;20052;-25
2022/06/12 05:11:14;;;;;;;17.48;4.35;;;15.50;99.90;;;;;;5062373;28;20048;-25
2022/06/12 05:13:39;;;;;;;14.57;3.75;;;15.90;6.80;;;;;;5058593;28;20123;-25
2022/06/12 05:16:07;;;;;;;20.73;4.80;;;16.30;99.90;;;;;;5059234;28;20049;-25
2022/06/12 05:18:33;;;;;;;15.95;3.67;;;16.50;99.90;;;;;;5058811;28;20067;-25
2022/06/12 05:20:58;;;;;;;11.18;3.92;;;16.80;30.50;;;;;;5058148;28;20057;-25
2022/06/12 05:23:24;;;;;;;21.45;5.32;;;17.00;1.00;;;;;;5056396;28;20102;-25
2022/06/12 05:25:51;;;;;;;16.77;4.38;;;17.10;1.00;;;;;;5059366;28;20170;-25
2022/06/12 05:28:19;;;;;;;15.15;4.40;;;17.30;1.00;;;;;;5064994;28;20052;-25
2022/06/12 05:30:45;;;;;;;19.23;4.93;;;17.40;99.90;;;;;;5059653;28;20391;-25
2022/06/12 05:33:11;;;;;;;24.33;4.93;;;17.70;99.90;;;;;;5068657;28;20044;-25
2022/06/12 05:35:39;;;;;;;16.67;4.07;;;17.80;99.90;;;;;;5079286;28;20044;-25
2022/06/12 05:38:07;;;;;;;18.10;4.32;;;18.00;99.90;;;;;;5059813;28;20045;-25
2022/06/12 05:40:35;;;;;;;15.50;3.90;;;18.10;99.90;;;;;;5055296;28;20040;-25
2022/06/12 05:43:02;;;;;;;19.90;4.50;;;18.30;99.90;;;;;;5059030;28;20449;-25
2022/06/12 05:45:29;;;;;;;26.63;5.75;;;18.30;99.90;;;;;;5056274;28;20045;-25
2022/06/12 05:48:01;;;;;;;20.90;5.05;;;18.20;99.90;;;;;;5054142;28;20052;-25
2022/06/12 05:50:30;;;;;;;26.30;5.47;;;18.30;99.90;;;;;;5056773;28;20376;-24
2022/06/12 05:52:56;;;;;;;20.10;4.70;;;17.60;99.90;;;;;;5058084;28;20056;-25
2022/06/12 05:55:22;;;;;;;25.70;6.05;;;17.40;99.90;;;;;;5056462;28;20120;-24
2022/06/12 05:57:48;;;;;;;24.00;6.22;;;17.80;99.90;;;;;;5054942;28;20045;-25
2022/06/12 06:00:19;;;;;;;25.85;4.75;;;17.80;99.90;;;;;;5054900;28;20041;-24
2022/06/12 06:02:44;;;;;;;27.42;5.80;;;17.40;99.90;;;;;;5055930;28;20887;-25
2022/06/12 06:05:11;;;;;;;27.45;5.35;;;16.80;99.90;;;;;;5056340;28;20045;-24
2022/06/12 06:07:37;;;;;;;22.75;5.53;;;17.10;99.90;;;;;;5056040;28;20088;-25
2022/06/12 06:10:06;;;;;;;19.52;4.68;;;17.70;99.90;;;;;;5055823;28;20482;-25
2022/06/12 06:12:31;;;;;;;17.92;5.13;;;17.40;99.90;;;;;;5055281;28;20048;-25
2022/06/12 06:14:57;;;;;;;20.83;5.30;;;17.00;99.90;;;;;;5067501;28;20037;-25
2022/06/12 06:17:23;;;;;;;15.57;4.65;;;17.20;99.90;;;;;;5075673;28;20461;-25
2022/06/12 06:19:49;;;;;;;27.90;5.95;;;17.60;99.90;;;;;;5055589;28;20041;-24
2022/06/12 06:22:18;;;;;;;31.30;6.05;;;17.30;99.90;;;;;;5037220;28;20468;-24
2022/06/12 06:24:44;;;;;;;24.92;5.57;;;16.70;99.90;;;;;;5055140;28;20517;-25
2022/06/12 06:27:12;;;;;;;23.27;4.93;;;16.60;1.00;;;;;;5056519;28;20142;-25
2022/06/12 06:29:37;;;;;;;28.88;6.60;;;16.90;99.90;;;;;;5054799;28;20091;-24
2022/06/12 06:32:05;;;;;;;24.13;5.65;;;17.70;99.90;;;;;;5055431;28;20490;-24
2022/06/12 06:34:31;;;;;;;26.95;6.90;;;18.20;99.90;;;;;;5054183;28;20069;-25
2022/06/12 06:36:57;;;;;;;30.40;7.28;;;18.50;99.90;;;;;;5054430;28;20052;-24
2022/06/12 06:39:23;;;;;;;26.15;6.68;;;18.70;99.20;;;;;;5053312;28;20041;-24
2022/06/12 06:41:49;;;;;;;30.48;6.20;;;18.90;65.40;;;;;;5054712;28;20045;-24
2022/06/12 06:46:59;;;;;;;28.58;5.60;;;19.50;40.80;;;;;;5055615;28;20052;-24
2022/06/12 06:49:25;;;;;;;32.08;6.10;;;19.70;3.30;;;;;;5066933;28;20040;-24
2022/06/12 06:51:51;;;;;;;22.60;6.50;;;19.80;1.00;;;;;;5049054;28;20045;-24
2022/06/12 06:54:18;;;;;;;26.85;6.32;;;19.80;1.00;;;;;;5054985;28;20060;-24
2022/06/12 06:56:44;;;;;;;29.10;6.72;;;19.60;1.00;;;;;;5054372;28;20417;-25
2022/06/12 06:59:10;;;;;;;22.98;4.95;;;19.90;1.00;;;;;;5054281;28;20383;-24
2022/06/12 07:01:36;;;;;;;24.35;5.65;;;20.20;1.00;;;;;;5053981;28;20047;-26
2022/06/12 07:04:02;;;;;;;28.05;5.88;;;20.30;1.00;;;;;;5072727;28;20048;-24
2022/06/12 07:06:29;;;;;;;19.95;4.07;;;20.40;1.00;;;;;;5074661;28;20052;-24
2022/06/12 07:08:55;;;;;;;21.05;4.95;;;20.50;99.90;;;;;;5057762;28;20049;-24
2022/06/12 07:11:23;;;;;;;17.25;4.05;;;20.60;99.90;;;;;;5059070;28;20123;-25
2022/06/12 07:13:49;;;;;;;22.33;5.07;;;20.60;99.90;;;;;;5061967;28;20044;-25
2022/06/12 07:16:16;;;;;;;23.20;5.30;;;20.70;99.90;;;;;;5045795;28;20464;-25
2022/06/12 07:18:43;;;;;;;25.10;5.85;;;20.90;99.90;;;;;;5059646;28;20098;-25
2022/06/12 07:21:10;;;;;;;25.23;4.75;;;21.10;99.90;;;;;;5059880;28;20139;-24
2022/06/12 07:23:37;;;;;;;18.65;4.45;;;20.70;99.90;;;;;;5060092;28;20079;-25
2022/06/12 07:26:11;;;;;;;14.20;4.45;;;20.40;99.90;;;;;;5058942;28;20037;-25
2022/06/12 07:28:38;;;;;;;16.23;4.25;;;20.60;99.90;;;;;;5061909;28;20052;-25
2022/06/12 07:31:06;;;;;;;18.48;3.22;;;20.90;99.90;;;;;;5070948;28;20053;-25
2022/06/12 07:33:32;;;;;;;21.73;4.63;;;20.80;99.90;;;;;;5063909;28;20051;-24
2022/06/12 07:35:58;;;;;;;17.17;3.47;;;20.60;99.90;;;;;;5073204;28;20084;-24
2022/06/12 07:38:27;;;;;;;13.85;3.45;;;20.40;99.90;;;;;;5056711;28;20083;-24
2022/06/12 07:40:58;;;;;;;15.60;3.58;;;20.50;99.90;;;;;;5054037;28;20047;-24
2022/06/12 07:43:26;;;;;;;21.85;4.68;;;20.50;99.90;;;;;;5054129;28;20045;-24
2022/06/12 07:45:53;;;;;;;23.35;4.93;;;20.80;99.90;;;;;;5054024;28;20051;-24
2022/06/12 07:48:20;;;;;;;18.60;3.90;;;21.00;99.90;;;;;;5053578;28;20064;-24
2022/06/12 07:50:48;;;;;;;18.77;3.17;;;21.10;99.90;;;;;;5054891;28;20147;-24
2022/06/12 07:53:15;;;;;;;15.27;3.80;;;21.30;99.90;;;;;;5062406;28;20052;-25
2022/06/12 07:55:41;;;;;;;25.58;4.55;;;21.50;99.90;;;;;;5065129;28;20067;-25
2022/06/12 07:58:09;;;;;;;16.60;3.75;;;21.60;99.90;;;;;;5068123;28;20048;-24
2022/06/12 08:00:37;;;;;;;14.20;3.42;;;21.30;99.90;;;;;;5071137;28;20390;-24
2022/06/12 08:03:03;;;;;;;18.42;4.75;;;20.80;99.90;;;;;;5057701;28;20491;-25
2022/06/12 08:05:29;;;;;;;17.27;3.80;;;20.90;99.90;;;;;;5074591;28;20098;-24
2022/06/12 08:07:55;;;;;;;17.45;4.13;;;20.80;99.90;;;;;;5054724;28;20067;-24
2022/06/12 08:10:21;;;;;;;15.43;3.50;;;20.70;99.90;;;;;;5073737;28;20574;-24
2022/06/12 08:12:47;;;;;;;16.75;2.60;;;20.70;99.90;;;;;;5072519;28;20078;-24
2022/06/12 08:15:21;;;;;;;9.00;2.65;;;20.70;1.00;;;;;;5073635;28;20062;-24
2022/06/12 08:17:49;;;;;;;11.73;2.28;;;20.30;1.00;;;;;;5059734;28;20060;-24
2022/06/12 08:20:24;;;;;;;12.13;2.88;;;20.10;5.70;;;;;;5054347;28;20104;-24
2022/06/12 08:22:52;;;;;;;12.00;2.88;;;19.60;84.60;;;;;;5056716;28;20132;-24
2022/06/12 08:25:18;;;;;;;10.10;2.83;;;19.20;95.40;;;;;;5067951;28;20071;-24
2022/06/12 08:27:43;;;;;;;15.68;3.53;;;19.00;99.90;;;;;;5071487;28;20052;-24
2022/06/12 08:30:10;;;;;;;13.43;2.60;;;19.00;99.90;;;;;;5062300;28;20041;-25
2022/06/12 08:32:36;;;;;;;13.10;2.90;;;19.10;99.90;;;;;;5062092;28;20053;-24
2022/06/12 08:35:08;;;;;;;14.75;2.60;;;19.30;99.90;;;;;;5073463;28;20049;-24
2022/06/12 08:37:37;;;;;;;10.57;2.60;;;19.90;88.00;;;;;;5070984;28;20169;-25
2022/06/12 08:40:11;;;;;;;19.85;3.47;;;20.50;1.00;;;;;;5069330;28;20040;-25
2022/06/12 08:42:44;;;;;;;13.70;2.90;;;20.60;65.30;;;;;;5061932;28;20059;-25
2022/06/12 08:45:15;;;;;;;13.57;3.08;;;20.50;1.00;;;;;;5073450;28;20045;-24
2022/06/12 08:48:02;;;;;;;11.80;2.67;;;20.90;1.00;;;;;;5058607;28;20534;-25
2022/06/12 08:50:51;;;;;;;12.52;3.00;;;20.90;1.00;;;;;;5071654;28;20040;-24
2022/06/12 08:53:51;;;;;;;11.25;3.00;;;20.30;36.70;;;;;;5073320;28;20486;-24
2022/06/12 08:56:25;;;;;;;10.25;2.75;;;20.00;99.90;;;;;;5060150;28;20489;-24
2022/06/12 08:59:08;;;;;;;15.77;3.10;;;20.70;85.70;;;;;;5035790;28;20128;-25
2022/06/12 09:01:41;;;;;;;12.40;2.72;;;20.70;1.00;;;;;;5071757;28;20044;-24
2022/06/12 09:04:09;;;;;;;;;;;20.20;4.10;;;;;;5070759;28;20118;-25
2022/06/12 09:06:45;;;;;;;14.82;4.07;;;20.40;1.00;;;;;;5053161;28;19920;-24
2022/06/12 09:09:35;;;;;;;12.15;3.25;;;21.30;1.00;;;;;;5053923;28;20072;-25
2022/06/12 09:12:16;;;;;;;11.93;3.15;;;21.90;1.00;;;;;;5055071;28;20123;-24
2022/06/12 09:15:17;;;;;;;9.95;2.75;;;21.40;1.00;;;;;;5056264;28;20056;-25
2022/06/12 09:18:01;;;;;;;9.90;2.70;;;21.40;1.00;;;;;;5049132;28;20452;-26
2022/06/12 09:20:43;;;;;;;8.57;2.25;;;20.70;99.90;;;;;;5058263;28;20064;-25
2022/06/12 09:23:28;;;;;;;8.70;2.17;;;20.20;1.00;;;;;;5056495;28;20056;-25
2022/06/12 09:26:08;;;;;;;9.25;2.28;;;19.80;1.00;;;;;;5056153;28;20051;-25
2022/06/12 09:29:15;;;;;;;10.73;2.53;;;19.90;41.70;;;;;;5055307;28;20049;-24
2022/06/12 09:32:05;;;;;;;16.95;3.95;;;20.50;99.90;;;;;;5069023;28;20049;-25
2022/06/12 09:34:57;;;;;;;7.47;2.05;;;21.40;1.00;;;;;;5072442;28;20486;-25
2022/06/12 09:40:53;;;;;;;10.18;2.40;;;21.50;1.00;;;;;;5068760;28;20052;-25
2022/06/12 09:43:30;;;;;;;6.35;2.13;;;21.10;1.00;;;;;;5075453;28;20048;-24
2022/06/12 09:46:08;;;;;;;6.05;1.40;;;20.90;1.00;;;;;;5076466;28;20048;-24
2022/06/12 09:48:48;;;;;;;10.93;2.88;;;21.50;99.90;;;;;;5076515;28;20149;-25
2022/06/12 09:51:45;;;;;;;9.10;2.38;;;22.20;99.90;;;;;;5072512;28;20045;-25
2022/06/12 09:54:46;;;;;;;8.57;1.88;;;22.10;99.90;;;;;;5076178;28;20055;-24
2022/06/12 09:57:18;;;;;;;6.75;1.95;;;21.30;99.90;;;;;;5076013;28;20044;-24
2022/06/12 10:00:22;;;;;;;;;;;20.60;1.00;;;;;;5075267;28;20123;-25
2022/06/12 10:03:07;;;;;;;7.50;1.40;;;20.20;1.00;;;;;;5014015;28;19921;-24
2022/06/12 10:05:40;;;;;;;5.55;1.67;;;20.60;99.90;;;;;;5071001;28;20052;-25
2022/06/12 10:08:16;;;;;;;10.15;2.05;;;20.40;99.90;;;;;;5074940;28;20053;-24
2022/06/12 10:11:07;;;;;;;8.13;1.50;;;20.00;99.90;;;;;;5073619;28;20037;-25
2022/06/12 10:13:38;;;;;;;4.28;1.00;;;20.80;99.90;;;;;;5073672;28;20539;-26
2022/06/12 10:16:11;;;;;;;7.40;1.90;;;21.10;99.90;;;;;;5057411;28;20140;-25
2022/06/12 10:18:49;;;;;;;7.82;2.17;;;20.50;99.90;;;;;;5056973;28;20063;-25
2022/06/12 10:21:18;;;;;;;8.60;1.17;;;20.00;99.90;;;;;;5055987;28;20485;-24
2022/06/12 10:23:44;;;;;;;5.70;1.52;;;19.90;99.90;;;;;;5055684;28;20045;-25
2022/06/12 10:26:31;;;;;;;10.80;1.30;;;20.50;99.90;;;;;;5055547;28;20049;-24
2022/06/12 10:29:06;;;;;;;5.65;1.88;;;21.20;99.90;;;;;;5055536;28;20116;-25
2022/06/12 10:31:43;;;;;;;5.18;1.50;;;21.10;99.90;;;;;;5073603;28;20067;-25
2022/06/12 10:34:22;;;;;;;9.10;1.48;;;20.70;99.90;;;;;;5073372;28;20052;-25
2022/06/12 10:36:48;;;;;;;6.55;1.55;;;20.20;99.90;;;;;;5063837;28;20123;-25
2022/06/12 10:39:13;;;;;;;12.05;2.75;;;19.60;99.90;;;;;;5073210;28;20128;-25
2022/06/12 10:42:08;;;;;;;8.32;1.55;;;20.00;99.90;;;;;;5070314;28;20151;-25
2022/06/12 10:44:37;;;;;;;10.50;1.60;;;21.00;99.90;;;;;;5062925;28;20064;-25
2022/06/12 10:47:38;;;;;;;2.63;1.15;;;20.60;99.90;;;;;;5058357;28;20060;-25
2022/06/12 10:50:25;;;;;;;7.20;1.60;;;20.70;99.90;;;;;;5054676;28;20045;-25
2022/06/12 10:52:53;;;;;;;9.80;2.22;;;21.00;99.90;;;;;;5054126;28;20482;-25
2022/06/12 10:55:35;;;;;;;12.23;2.75;;;21.20;99.90;;;;;;5055867;28;20491;-25
2022/06/12 10:58:22;;;;;;;7.10;2.03;;;21.60;99.90;;;;;;5075005;28;20052;-25
2022/06/12 11:00:50;;;;;;;37.53;3.83;;;21.80;52.00;;;;;;5075695;28;20045;-25
2022/06/12 11:03:24;;;;;;;6.55;1.63;;;21.50;99.90;;;;;;5057697;28;20071;-25
2022/06/12 11:05:58;;;;;;;6.93;2.30;;;21.40;99.90;;;;;;5065375;28;20106;-25
2022/06/12 11:08:49;;;;;;;6.57;2.03;;;20.90;99.90;;;;;;5060934;28;20040;-25
2022/06/12 11:11:39;;;;;;;4.40;1.55;;;21.10;99.90;;;;;;5074684;28;20056;-25
2022/06/12 11:14:32;;;;;;;11.73;1.85;;;20.90;99.90;;;;;;5059350;28;20040;-25
2022/06/12 11:17:38;;;;;;;5.50;1.27;;;21.00;20.40;;;;;;5066606;28;20124;-26
2022/06/12 11:20:31;;;;;;;8.93;1.88;;;20.20;99.90;;;;;;5061091;28;20045;-25
2022/06/12 11:23:00;;;;;;;8.15;2.05;;;19.90;99.90;;;;;;5072781;28;20053;-25
2022/06/12 11:25:54;;;;;;;6.25;1.92;;;19.90;99.90;;;;;;5064451;28;20072;-24
2022/06/12 11:28:31;;;;;;;7.85;1.58;;;19.70;99.90;;;;;;5054982;28;20048;-24
2022/06/12 11:31:29;;;;;;;9.30;2.13;;;20.20;99.90;;;;;;5060653;28;20397;-25
2022/06/12 11:34:09;;;;;;;5.50;1.70;;;20.70;99.90;;;;;;5059703;28;20450;-26
2022/06/12 11:36:50;;;;;;;6.50;1.90;;;21.10;99.90;;;;;;5061286;28;20079;-25
2022/06/12 11:39:27;;;;;;;4.45;1.63;;;20.50;99.90;;;;;;5064783;28;20048;-25
2022/06/12 11:42:18;;;;;;;6.13;1.50;;;19.60;99.90;;;;;;5040078;28;20041;-25
2022/06/12 11:44:46;;;;;;;8.75;2.03;;;19.80;1.00;;;;;;5059158;28;20470;-25
2022/06/12 11:47:50;;;;;;;6.70;1.55;;;20.70;99.90;;;;;;5058219;28;20049;-26
2022/06/12 11:50:34;;;;;;;;;;;20.40;99.90;;;;;;5053375;28;20049;-25
2022/06/12 11:53:32;;;;;;;8.43;1.90;;;19.70;99.90;;;;;;5053981;28;19979;-25
2022/06/12 11:56:14;;;;;;;5.88;1.52;;;19.40;1.00;;;;;;5053971;28;20048;-24
2022/06/12 11:58:42;;;;;;;7.30;1.52;;;20.30;99.90;;;;;;5053901;28;20495;-24
2022/06/12 12:01:35;;;;;;;8.75;2.67;;;20.60;99.90;;;;;;5056795;28;20037;-25
2022/06/12 12:04:20;;;;;;;6.30;1.65;;;19.80;99.90;;;;;;5072978;28;20040;-25
2022/06/12 12:07:00;;;;;;;10.52;2.40;;;20.10;99.90;;;;;;5074101;28;20398;-25
2022/06/12 12:09:38;;;;;;;5.10;1.38;;;20.80;99.90;;;;;;5073847;28;20119;-25
2022/06/12 12:12:12;;;;;;;6.00;1.80;;;20.90;99.90;;;;;;5073763;28;20501;-25
2022/06/12 12:14:43;;;;;;;6.18;1.70;;;21.30;88.90;;;;;;5073752;28;20114;-25
2022/06/12 12:17:17;;;;;;;4.38;1.40;;;21.30;9.00;;;;;;5069693;28;20045;-25
2022/06/12 12:20:18;;;;;;;6.28;2.33;;;21.50;91.70;;;;;;5061998;28;20045;-25
2022/06/12 12:22:57;;;;;;;6.30;1.83;;;21.20;51.90;;;;;;5049478;28;20056;-25
2022/06/12 12:25:29;;;;;;;10.05;2.03;;;21.20;5.00;;;;;;5070693;28;20136;-25
2022/06/12 12:28:04;;;;;;;12.45;2.50;;;21.10;99.90;;;;;;5070093;28;20490;-25
2022/06/12 12:30:35;;;;;;;9.65;2.08;;;20.30;99.90;;;;;;5057455;28;20525;-25
2022/06/12 12:33:03;;;;;;;11.00;2.13;;;20.00;99.90;;;;;;5057402;28;20037;-25
2022/06/12 12:41:12;;;;;;;11.52;2.03;;;21.00;99.90;;;;;;5052682;28;20045;-25
2022/06/12 12:43:56;;;;;;;12.80;2.65;;;21.00;99.90;;;;;;5053496;28;20120;-25
2022/06/12 12:46:47;;;;;;;7.63;2.20;;;20.90;99.90;;;;;;5053360;28;20375;-25
2022/06/12 12:49:27;;;;;;;6.05;1.77;;;20.30;93.40;;;;;;5059901;28;20056;-25
2022/06/12 12:52:15;;;;;;;6.68;1.85;;;20.80;99.90;;;;;;5065707;28;20452;-25
2022/06/12 12:55:01;;;;;;;4.22;1.15;;;21.10;99.90;;;;;;5066974;28;20482;-25
2022/06/12 12:57:37;;;;;;;26.55;2.55;;;20.90;99.90;;;;;;5065117;28;20107;-25
2022/06/12 13:00:19;;;;;;;12.00;2.28;;;20.30;99.90;;;;;;5073377;28;20137;-25
2022/06/12 13:02:59;;;;;;;7.95;2.25;;;20.60;99.90;;;;;;5067930;28;20049;-25
2022/06/12 13:05:46;;;;;;;7.43;2.10;;;21.10;99.90;;;;;;5060985;28;20072;-25
2022/06/12 13:08:38;;;;;;;10.52;3.03;;;21.50;99.90;;;;;;5078685;28;20068;-25
2022/06/12 13:11:38;;;;;;;7.32;1.65;;;21.50;99.90;;;;;;5078652;28;20398;-25
2022/06/12 13:14:25;;;;;;;6.25;2.47;;;21.40;99.90;;;;;;5076936;28;20136;-25
2022/06/12 13:17:12;;;;;;;6.88;1.83;;;21.40;32.60;;;;;;5073508;28;20487;-25
2022/06/12 13:20:07;;;;;;;6.50;1.50;;;21.30;99.90;;;;;;5062215;28;20086;-25
2022/06/12 13:22:52;;;;;;;7.70;2.10;;;21.00;64.20;;;;;;5076667;28;20060;-25
2022/06/12 13:25:35;;;;;;;11.50;2.60;;;20.90;72.20;;;;;;5077056;28;20504;-25
2022/06/12 13:28:01;;;;;;;;;;;21.10;99.90;;;;;;5077138;28;20555;-25
2022/06/12 13:30:40;;;;;;;9.40;1.73;;;20.80;99.90;;;;;;5067054;28;20053;-25
2022/06/12 13:33:07;;;;;;;13.85;3.28;;;21.20;99.90;;;;;;5076554;28;20048;-25
2022/06/12 13:35:45;;;;;;;12.25;4.25;;;21.00;1.00;;;;;;5059592;28;20493;-25
2022/06/12 13:38:24;;;;;;;6.35;1.83;;;20.50;99.90;;;;;;5061980;28;20053;-25
2022/06/12 13:41:25;;;;;;;10.05;2.42;;;20.40;99.90;;;;;;5076361;28;20040;-25
2022/06/12 13:43:51;;;;;;;11.18;2.70;;;19.90;99.90;;;;;;5077393;28;20048;-25